sensor_id;sensor_type;location;lat;lon;timestamp;pressure;altitude;pressure_sealevel;temperature;humidity
80198;BME280;69517;52.030;7.106;2024-03-06T00:02:20;100868.06;;;20.99;70.00
80198;BME280;69517;52.030;7.106;2024-03-06T00:04:46;100870.63;;;21.01;70.08
80198;BME280;69517;52.030;7.106;2024-03-06T00:07:13;100870.72;;;20.99;69.86
80198;BME280;69517;52.030;7.106;2024-03-06T00:09:39;100875.13;;;20.99;70.07
80198;BME280;69517;52.030;7.106;2024-03-06T00:12:05;100871.78;;;20.97;70.04
80198;BME280;69517;52.030;7.106;2024-03-06T00:14:32;100876.19;;;20.96;69.93
80198;BME280;69517;52.030;7.106;2024-03-06T00:17:01;100877.97;;;20.96;69.96
80198;BME280;69517;52.030;7.106;2024-03-06T00:19:30;100888.56;;;20.94;70.01
80198;BME280;69517;52.030;7.106;2024-03-06T00:21:57;100892.13;;;20.93;70.11
80198;BME280;69517;52.030;7.106;2024-03-06T00:24:24;100882.47;;;20.94;70.08
80198;BME280;69517;52.030;7.106;2024-03-06T00:26:51;100885.94;;;20.94;70.13
80198;BME280;69517;52.030;7.106;2024-03-06T00:29:17;100880.91;;;20.91;69.89
80198;BME280;69517;52.030;7.106;2024-03-06T00:31:44;100888.78;;;20.91;69.97
80198;BME280;69517;52.030;7.106;2024-03-06T00:34:10;100885.19;;;20.92;69.96
80198;BME280;69517;52.030;7.106;2024-03-06T00:36:40;100890.66;;;20.89;70.01
80198;BME280;69517;52.030;7.106;2024-03-06T00:39:06;100890.66;;;20.89;69.94
80198;BME280;69517;52.030;7.106;2024-03-06T00:41:34;100896.00;;;20.88;70.14
80198;BME280;69517;52.030;7.106;2024-03-06T00:44:00;100902.09;;;20.88;70.01
80198;BME280;69517;52.030;7.106;2024-03-06T00:46:26;100900.41;;;20.87;70.21
80198;BME280;69517;52.030;7.106;2024-03-06T00:48:53;100909.16;;;20.88;70.03
80198;BME280;69517;52.030;7.106;2024-03-06T00:51:19;100894.44;;;20.85;70.05
80198;BME280;69517;52.030;7.106;2024-03-06T00:53:47;100900.63;;;20.84;69.97
80198;BME280;69517;52.030;7.106;2024-03-06T00:56:13;100903.25;;;20.84;69.97
80198;BME280;69517;52.030;7.106;2024-03-06T00:58:40;100908.50;;;20.84;70.06
80198;BME280;69517;52.030;7.106;2024-03-06T01:01:06;100911.22;;;20.83;70.10
80198;BME280;69517;52.030;7.106;2024-03-06T01:03:32;100909.53;;;20.82;70.04
80198;BME280;69517;52.030;7.106;2024-03-06T01:05:59;100914.88;;;20.80;69.95
80198;BME280;69517;52.030;7.106;2024-03-06T01:08:25;100912.38;;;20.79;70.17
80198;BME280;69517;52.030;7.106;2024-03-06T01:10:53;100917.50;;;20.80;70.07
80198;BME280;69517;52.030;7.106;2024-03-06T01:13:19;100917.81;;;20.76;70.45
80198;BME280;69517;52.030;7.106;2024-03-06T01:15:46;100921.19;;;20.78;70.16
80198;BME280;69517;52.030;7.106;2024-03-06T01:18:12;100923.81;;;20.78;70.29
80198;BME280;69517;52.030;7.106;2024-03-06T01:20:39;100926.25;;;20.81;70.28
80198;BME280;69517;52.030;7.106;2024-03-06T01:23:05;100923.81;;;20.78;70.36
80198;BME280;69517;52.030;7.106;2024-03-06T01:25:31;100927.22;;;20.80;70.36
80198;BME280;69517;52.030;7.106;2024-03-06T01:27:59;100920.97;;;20.81;70.40
80198;BME280;69517;52.030;7.106;2024-03-06T01:30:25;100928.16;;;20.79;70.81
80198;BME280;69517;52.030;7.106;2024-03-06T01:32:52;100928.31;;;20.76;71.20
80198;BME280;69517;52.030;7.106;2024-03-06T01:35:18;100931.78;;;20.76;70.88
80198;BME280;69517;52.030;7.106;2024-03-06T01:37:45;100933.56;;;20.76;70.86
80198;BME280;69517;52.030;7.106;2024-03-06T01:40:11;100933.56;;;20.76;71.34
80198;BME280;69517;52.030;7.106;2024-03-06T01:42:38;100936.28;;;20.74;71.13
80198;BME280;69517;52.030;7.106;2024-03-06T01:45:07;100931.16;;;20.73;71.28
80198;BME280;69517;52.030;7.106;2024-03-06T01:47:33;100938.09;;;20.74;71.33
80198;BME280;69517;52.030;7.106;2024-03-06T01:50:00;100946.00;;;20.74;71.40
80198;BME280;69517;52.030;7.106;2024-03-06T01:52:27;100935.47;;;20.74;71.46
80198;BME280;69517;52.030;7.106;2024-03-06T01:54:53;100937.34;;;20.72;71.29
80198;BME280;69517;52.030;7.106;2024-03-06T01:57:21;100936.69;;;20.68;71.43
80198;BME280;69517;52.030;7.106;2024-03-06T01:59:47;100941.94;;;20.68;71.57
80198;BME280;69517;52.030;7.106;2024-03-06T02:02:16;100940.16;;;20.69;71.52
80198;BME280;69517;52.030;7.106;2024-03-06T02:04:42;100947.19;;;20.68;71.67
80198;BME280;69517;52.030;7.106;2024-03-06T02:07:09;100950.78;;;20.67;71.74
80198;BME280;69517;52.030;7.106;2024-03-06T02:09:36;100946.34;;;20.67;71.92
80198;BME280;69517;52.030;7.106;2024-03-06T02:12:03;100950.66;;;20.69;71.81
80198;BME280;69517;52.030;7.106;2024-03-06T02:14:29;100954.44;;;20.64;71.60
80198;BME280;69517;52.030;7.106;2024-03-06T02:16:56;100951.81;;;20.64;71.75
80198;BME280;69517;52.030;7.106;2024-03-06T02:19:23;100955.38;;;20.63;71.82
80198;BME280;69517;52.030;7.106;2024-03-06T02:21:53;100954.53;;;20.63;71.74
80198;BME280;69517;52.030;7.106;2024-03-06T02:24:19;100962.50;;;20.61;71.73
80198;BME280;69517;52.030;7.106;2024-03-06T02:26:45;100958.94;;;20.62;71.73
80198;BME280;69517;52.030;7.106;2024-03-06T02:29:12;100959.97;;;20.60;71.76
80198;BME280;69517;52.030;7.106;2024-03-06T02:31:40;100967.88;;;20.60;71.80
80198;BME280;69517;52.030;7.106;2024-03-06T02:34:07;100963.53;;;20.59;71.62
80198;BME280;69517;52.030;7.106;2024-03-06T02:36:33;100960.91;;;20.59;71.73
80198;BME280;69517;52.030;7.106;2024-03-06T02:39:02;100966.25;;;20.57;71.94
80198;BME280;69517;52.030;7.106;2024-03-06T02:41:33;100965.31;;;20.58;71.66
80198;BME280;69517;52.030;7.106;2024-03-06T02:44:00;100963.53;;;20.59;71.81
80198;BME280;69517;52.030;7.106;2024-03-06T02:46:26;100965.50;;;20.55;71.91
80198;BME280;69517;52.030;7.106;2024-03-06T02:48:53;100960.25;;;20.55;71.86
80198;BME280;69517;52.030;7.106;2024-03-06T02:51:19;100968.97;;;20.56;71.79
80198;BME280;69517;52.030;7.106;2024-03-06T02:53:46;100960.25;;;20.55;71.78
80198;BME280;69517;52.030;7.106;2024-03-06T02:56:17;100959.44;;;20.55;71.78
80198;BME280;69517;52.030;7.106;2024-03-06T02:58:43;100963.00;;;20.54;71.86
80198;BME280;69517;52.030;7.106;2024-03-06T03:01:09;100962.13;;;20.53;71.94
80198;BME280;69517;52.030;7.106;2024-03-06T03:03:36;100959.50;;;20.53;71.81
80198;BME280;69517;52.030;7.106;2024-03-06T03:06:02;100957.63;;;20.55;71.90
80198;BME280;69517;52.030;7.106;2024-03-06T03:08:29;100968.13;;;20.55;71.74
80198;BME280;69517;52.030;7.106;2024-03-06T03:10:56;100967.41;;;20.53;71.77
80198;BME280;69517;52.030;7.106;2024-03-06T03:13:24;100965.63;;;20.54;71.70
80198;BME280;69517;52.030;7.106;2024-03-06T03:15:50;100963.84;;;20.54;71.71
80198;BME280;69517;52.030;7.106;2024-03-06T03:18:17;100964.00;;;20.51;71.79
80198;BME280;69517;52.030;7.106;2024-03-06T03:20:43;100962.31;;;20.50;71.77
80198;BME280;69517;52.030;7.106;2024-03-06T03:23:10;100967.47;;;20.52;71.88
80198;BME280;69517;52.030;7.106;2024-03-06T03:25:39;100973.56;;;20.52;71.61
80198;BME280;69517;52.030;7.106;2024-03-06T03:28:06;100971.03;;;20.51;71.51
80198;BME280;69517;52.030;7.106;2024-03-06T03:30:33;100974.50;;;20.51;71.67
80198;BME280;69517;52.030;7.106;2024-03-06T03:33:00;100972.72;;;20.52;71.59
80198;BME280;69517;52.030;7.106;2024-03-06T03:35:26;100974.72;;;20.48;71.66
80198;BME280;69517;52.030;7.106;2024-03-06T03:37:53;100971.13;;;20.49;71.61
80198;BME280;69517;52.030;7.106;2024-03-06T03:40:20;100971.25;;;20.48;71.51
80198;BME280;69517;52.030;7.106;2024-03-06T03:42:46;100970.41;;;20.47;71.80
80198;BME280;69517;52.030;7.106;2024-03-06T03:45:13;100977.34;;;20.48;71.64
80198;BME280;69517;52.030;7.106;2024-03-06T03:47:41;100987.94;;;20.47;71.58
80198;BME280;69517;52.030;7.106;2024-03-06T03:50:08;100980.91;;;20.47;71.59
80198;BME280;69517;52.030;7.106;2024-03-06T03:52:34;100985.31;;;20.47;71.79
80198;BME280;69517;52.030;7.106;2024-03-06T03:55:01;100990.56;;;20.47;71.57
80198;BME280;69517;52.030;7.106;2024-03-06T03:57:28;100993.19;;;20.47;71.66
80198;BME280;69517;52.030;7.106;2024-03-06T03:59:55;100991.59;;;20.44;71.50
80198;BME280;69517;52.030;7.106;2024-03-06T04:02:22;100992.44;;;20.45;71.51
80198;BME280;69517;52.030;7.106;2024-03-06T04:04:49;100991.50;;;20.46;71.53
80198;BME280;69517;52.030;7.106;2024-03-06T04:07:16;100994.13;;;20.46;71.55
80198;BME280;69517;52.030;7.106;2024-03-06T04:09:44;100996.66;;;20.47;71.51
80198;BME280;69517;52.030;7.106;2024-03-06T04:12:10;100992.44;;;20.45;71.44
80198;BME280;69517;52.030;7.106;2024-03-06T04:14:36;100994.22;;;20.44;71.47
80198;BME280;69517;52.030;7.106;2024-03-06T04:17:03;100997.78;;;20.43;71.39
80198;BME280;69517;52.030;7.106;2024-03-06T04:19:29;100994.31;;;20.43;71.38
80198;BME280;69517;52.030;7.106;2024-03-06T04:21:58;101000.41;;;20.43;71.45
80198;BME280;69517;52.030;7.106;2024-03-06T04:24:24;100995.13;;;20.43;71.61
80198;BME280;69517;52.030;7.106;2024-03-06T04:26:51;100996.84;;;20.44;71.94
80198;BME280;69517;52.030;7.106;2024-03-06T04:29:18;100995.13;;;20.43;72.21
80198;BME280;69517;52.030;7.106;2024-03-06T04:31:44;100998.34;;;20.48;72.26
80198;BME280;69517;52.030;7.106;2024-03-06T04:34:10;101006.03;;;20.51;71.82
80198;BME280;69517;52.030;7.106;2024-03-06T04:36:37;101009.41;;;20.53;72.01
80198;BME280;69517;52.030;7.106;2024-03-06T04:39:04;101014.69;;;20.53;72.29
80198;BME280;69517;52.030;7.106;2024-03-06T04:41:32;101018.22;;;20.52;72.66
80198;BME280;69517;52.030;7.106;2024-03-06T04:43:58;101018.03;;;20.55;72.43
80198;BME280;69517;52.030;7.106;2024-03-06T04:46:26;101023.19;;;20.57;72.38
80198;BME280;69517;52.030;7.106;2024-03-06T04:48:52;101030.06;;;20.59;72.27
80198;BME280;69517;52.030;7.106;2024-03-06T04:51:19;101031.63;;;20.62;72.19
80198;BME280;69517;52.030;7.106;2024-03-06T04:53:45;101035.88;;;20.64;72.10
80198;BME280;69517;52.030;7.106;2024-03-06T04:56:13;101037.56;;;20.65;71.80
80198;BME280;69517;52.030;7.106;2024-03-06T04:58:41;101045.38;;;20.67;71.96
80198;BME280;69517;52.030;7.106;2024-03-06T05:01:07;101041.78;;;20.68;71.85
80198;BME280;69517;52.030;7.106;2024-03-06T05:03:34;101044.31;;;20.70;71.80
80198;BME280;69517;52.030;7.106;2024-03-06T05:06:00;101044.31;;;20.70;71.67
80198;BME280;69517;52.030;7.106;2024-03-06T05:08:28;101048.63;;;20.71;71.55
80198;BME280;69517;52.030;7.106;2024-03-06T05:10:54;101052.88;;;20.73;71.60
80198;BME280;69517;52.030;7.106;2024-03-06T05:13:22;101055.50;;;20.73;71.60
80198;BME280;69517;52.030;7.106;2024-03-06T05:15:48;101057.16;;;20.74;71.53
80198;BME280;69517;52.030;7.106;2024-03-06T05:18:15;101063.25;;;20.75;71.36
80198;BME280;69517;52.030;7.106;2024-03-06T05:20:41;101059.69;;;20.76;71.37
80198;BME280;69517;52.030;7.106;2024-03-06T05:23:08;101068.44;;;20.76;71.37
80198;BME280;69517;52.030;7.106;2024-03-06T05:25:34;101070.22;;;20.76;71.34
80198;BME280;69517;52.030;7.106;2024-03-06T05:28:01;101070.22;;;20.76;71.29
80198;BME280;69517;52.030;7.106;2024-03-06T05:30:30;101074.53;;;20.77;71.21
80198;BME280;69517;52.030;7.106;2024-03-06T05:32:57;101076.41;;;20.75;71.24
80198;BME280;69517;52.030;7.106;2024-03-06T05:35:23;101085.13;;;20.75;71.32
80198;BME280;69517;52.030;7.106;2024-03-06T05:37:50;101080.72;;;20.76;71.28
80198;BME280;69517;52.030;7.106;2024-03-06T05:40:16;101091.16;;;20.77;71.11
80198;BME280;69517;52.030;7.106;2024-03-06T05:42:42;101090.31;;;20.77;71.20
80198;BME280;69517;52.030;7.106;2024-03-06T05:45:09;101095.56;;;20.77;71.16
80198;BME280;69517;52.030;7.106;2024-03-06T05:47:38;101094.63;;;20.78;71.21
80198;BME280;69517;52.030;7.106;2024-03-06T05:50:05;101105.06;;;20.79;71.15
80198;BME280;69517;52.030;7.106;2024-03-06T05:52:32;101103.28;;;20.80;71.10
80198;BME280;69517;52.030;7.106;2024-03-06T05:54:58;101113.78;;;20.80;71.09
80198;BME280;69517;52.030;7.106;2024-03-06T05:57:25;101112.09;;;20.79;71.10
80198;BME280;69517;52.030;7.106;2024-03-06T05:59:51;101115.66;;;20.78;71.18
80198;BME280;69517;52.030;7.106;2024-03-06T06:02:18;101119.03;;;20.80;71.06
80198;BME280;69517;52.030;7.106;2024-03-06T06:04:46;101119.78;;;20.82;70.97
80198;BME280;69517;52.030;7.106;2024-03-06T06:07:12;101130.28;;;20.82;70.99
80198;BME280;69517;52.030;7.106;2024-03-06T06:09:38;101128.34;;;20.85;70.72
80198;BME280;69517;52.030;7.106;2024-03-06T06:12:05;101138.56;;;20.90;70.59
80198;BME280;69517;52.030;7.106;2024-03-06T06:14:32;101139.97;;;20.95;70.44
80198;BME280;69517;52.030;7.106;2024-03-06T06:16:58;101138.75;;;21.01;70.23
80198;BME280;69517;52.030;7.106;2024-03-06T06:19:24;101146.47;;;21.04;70.09
80198;BME280;69517;52.030;7.106;2024-03-06T06:21:53;101142.69;;;21.08;70.02
80198;BME280;69517;52.030;7.106;2024-03-06T06:24:20;101146.09;;;21.10;69.88
80198;BME280;69517;52.030;7.106;2024-03-06T06:26:46;101146.81;;;21.12;69.81
80198;BME280;69517;52.030;7.106;2024-03-06T06:29:12;101151.06;;;21.15;69.86
80198;BME280;69517;52.030;7.106;2024-03-06T06:31:39;101148.38;;;21.16;69.70
80198;BME280;69517;52.030;7.106;2024-03-06T06:34:05;101157.84;;;21.19;69.59
80198;BME280;69517;52.030;7.106;2024-03-06T06:36:31;101161.41;;;21.18;69.77
80198;BME280;69517;52.030;7.106;2024-03-06T06:38:59;101171.81;;;21.19;69.80
80198;BME280;69517;52.030;7.106;2024-03-06T06:41:26;101174.47;;;21.19;69.80
80198;BME280;69517;52.030;7.106;2024-03-06T06:43:52;101174.28;;;21.22;69.73
80198;BME280;69517;52.030;7.106;2024-03-06T06:46:19;101171.53;;;21.24;69.78
80198;BME280;69517;52.030;7.106;2024-03-06T06:48:46;101168.06;;;21.23;69.87
80198;BME280;69517;52.030;7.106;2024-03-06T06:51:13;101169.75;;;21.24;69.89
80198;BME280;69517;52.030;7.106;2024-03-06T06:53:39;101194.09;;;21.28;69.87
80198;BME280;69517;52.030;7.106;2024-03-06T06:56:09;101182.63;;;21.29;69.82
80198;BME280;69517;52.030;7.106;2024-03-06T06:58:35;101182.53;;;21.30;69.83
80198;BME280;69517;52.030;7.106;2024-03-06T07:01:02;101185.06;;;21.32;69.80
80198;BME280;69517;52.030;7.106;2024-03-06T07:03:29;101183.19;;;21.34;69.75
80198;BME280;69517;52.030;7.106;2024-03-06T07:05:55;101200.84;;;21.32;69.82
80198;BME280;69517;52.030;7.106;2024-03-06T07:08:22;101201.69;;;21.32;70.65
80198;BME280;69517;52.030;7.106;2024-03-06T07:10:49;101208.34;;;21.10;67.27
80198;BME280;69517;52.030;7.106;2024-03-06T07:13:16;101215.09;;;20.08;61.06
80198;BME280;69517;52.030;7.106;2024-03-06T07:15:44;101213.91;;;19.34;59.92
80198;BME280;69517;52.030;7.106;2024-03-06T07:18:10;101222.31;;;19.08;58.79
80198;BME280;69517;52.030;7.106;2024-03-06T07:20:36;101220.94;;;18.83;58.63
80198;BME280;69517;52.030;7.106;2024-03-06T07:23:03;101227.88;;;18.67;57.96
80198;BME280;69517;52.030;7.106;2024-03-06T07:25:29;101230.38;;;18.51;58.41
80198;BME280;69517;52.030;7.106;2024-03-06T07:27:55;101231.88;;;18.74;59.41
80198;BME280;69517;52.030;7.106;2024-03-06T07:30:23;101237.19;;;19.40;60.92
80198;BME280;69517;52.030;7.106;2024-03-06T07:32:50;101246.34;;;19.97;62.44
80198;BME280;69517;52.030;7.106;2024-03-06T07:35:16;101244.72;;;20.26;63.05
80198;BME280;69517;52.030;7.106;2024-03-06T07:37:43;101250.88;;;20.42;63.30
80198;BME280;69517;52.030;7.106;2024-03-06T07:40:11;101249.38;;;20.52;63.73
80198;BME280;69517;52.030;7.106;2024-03-06T07:42:37;101242.84;;;20.59;64.19
80198;BME280;69517;52.030;7.106;2024-03-06T07:45:04;101247.41;;;20.72;63.43
80198;BME280;69517;52.030;7.106;2024-03-06T07:47:32;101239.94;;;20.80;64.43
80198;BME280;69517;52.030;7.106;2024-03-06T07:49:58;101243.19;;;20.83;64.90
80198;BME280;69517;52.030;7.106;2024-03-06T07:52:25;101249.13;;;20.87;65.13
80198;BME280;69517;52.030;7.106;2024-03-06T07:54:51;101248.19;;;20.88;65.34
80198;BME280;69517;52.030;7.106;2024-03-06T07:57:17;101246.31;;;20.90;65.50
80198;BME280;69517;52.030;7.106;2024-03-06T07:59:44;101252.06;;;20.96;65.47
80198;BME280;69517;52.030;7.106;2024-03-06T08:02:10;101250.16;;;20.98;65.53
80198;BME280;69517;52.030;7.106;2024-03-06T08:04:38;101250.84;;;21.02;65.57
80198;BME280;69517;52.030;7.106;2024-03-06T08:07:04;101253.28;;;21.05;65.64
80198;BME280;69517;52.030;7.106;2024-03-06T08:09:31;101251.41;;;21.07;65.50
80198;BME280;69517;52.030;7.106;2024-03-06T08:11:57;101252.34;;;21.06;65.91
80198;BME280;69517;52.030;7.106;2024-03-06T08:14:23;101256.69;;;21.07;66.06
80198;BME280;69517;52.030;7.106;2024-03-06T08:16:50;101262.50;;;21.12;65.96
80198;BME280;69517;52.030;7.106;2024-03-06T08:19:17;101264.88;;;21.17;66.03
80198;BME280;69517;52.030;7.106;2024-03-06T08:21:44;101264.88;;;21.17;66.03
80198;BME280;69517;52.030;7.106;2024-03-06T08:24:11;101270.13;;;21.17;66.13
80198;BME280;69517;52.030;7.106;2024-03-06T08:26:37;101272.78;;;21.17;66.26
80198;BME280;69517;52.030;7.106;2024-03-06T08:29:04;101288.72;;;21.14;66.53
80198;BME280;69517;52.030;7.106;2024-03-06T08:31:30;101273.88;;;21.13;66.69
80198;BME280;69517;52.030;7.106;2024-03-06T08:33:57;101273.94;;;21.11;67.12
80198;BME280;69517;52.030;7.106;2024-03-06T08:36:23;101283.81;;;21.08;67.38
80198;BME280;69517;52.030;7.106;2024-03-06T08:38:51;101288.22;;;21.07;67.56
80198;BME280;69517;52.030;7.106;2024-03-06T08:41:17;101296.13;;;21.07;67.23
80198;BME280;69517;52.030;7.106;2024-03-06T08:43:45;101290.00;;;21.06;67.24
80198;BME280;69517;52.030;7.106;2024-03-06T08:46:11;101298.66;;;21.09;67.16
80198;BME280;69517;52.030;7.106;2024-03-06T08:48:38;101294.06;;;21.12;67.38
80198;BME280;69517;52.030;7.106;2024-03-06T08:51:04;101309.75;;;21.14;67.25
80198;BME280;69517;52.030;7.106;2024-03-06T08:53:36;101312.22;;;21.17;67.35
80198;BME280;69517;52.030;7.106;2024-03-06T08:56:04;101300.88;;;21.16;67.26
80198;BME280;69517;52.030;7.106;2024-03-06T08:58:30;101313.06;;;21.17;67.37
80198;BME280;69517;52.030;7.106;2024-03-06T09:00:57;101317.59;;;21.15;67.59
80198;BME280;69517;52.030;7.106;2024-03-06T09:03:24;101317.38;;;21.18;67.64
80198;BME280;69517;52.030;7.106;2024-03-06T09:05:50;101319.16;;;21.18;67.70
80198;BME280;69517;52.030;7.106;2024-03-06T09:08:16;101320.88;;;21.19;67.92
80198;BME280;69517;52.030;7.106;2024-03-06T09:10:43;101322.66;;;21.18;67.97
80198;BME280;69517;52.030;7.106;2024-03-06T09:13:11;101327.91;;;21.18;68.14
80198;BME280;69517;52.030;7.106;2024-03-06T09:15:38;101319.09;;;21.19;68.16
80198;BME280;69517;52.030;7.106;2024-03-06T09:18:04;101326.13;;;21.19;68.10
80198;BME280;69517;52.030;7.106;2024-03-06T09:20:31;101328.84;;;21.17;68.20
80198;BME280;69517;52.030;7.106;2024-03-06T09:22:57;101335.78;;;21.18;68.30
80198;BME280;69517;52.030;7.106;2024-03-06T09:25:25;101334.94;;;21.18;68.27
80198;BME280;69517;52.030;7.106;2024-03-06T09:27:52;101345.63;;;21.15;68.43
80198;BME280;69517;52.030;7.106;2024-03-06T09:30:20;101344.78;;;21.14;68.45
80198;BME280;69517;52.030;7.106;2024-03-06T09:32:46;101345.63;;;21.15;68.45
80198;BME280;69517;52.030;7.106;2024-03-06T09:35:12;101346.50;;;21.15;68.52
80198;BME280;69517;52.030;7.106;2024-03-06T09:37:42;101356.84;;;21.18;68.49
80198;BME280;69517;52.030;7.106;2024-03-06T09:40:08;101357.75;;;21.17;68.46
80198;BME280;69517;52.030;7.106;2024-03-06T09:42:36;101357.03;;;21.15;68.23
80198;BME280;69517;52.030;7.106;2024-03-06T09:45:02;101361.41;;;21.15;68.22
80198;BME280;69517;52.030;7.106;2024-03-06T09:47:31;101351.78;;;21.15;68.38
80198;BME280;69517;52.030;7.106;2024-03-06T09:49:59;101354.44;;;21.14;68.42
80198;BME280;69517;52.030;7.106;2024-03-06T09:52:28;101356.22;;;21.13;68.46
80198;BME280;69517;52.030;7.106;2024-03-06T09:54:55;101360.72;;;21.11;68.43
80198;BME280;69517;52.030;7.106;2024-03-06T09:57:22;101359.97;;;21.09;68.56
80198;BME280;69517;52.030;7.106;2024-03-06T09:59:48;101360.72;;;21.11;68.47
80198;BME280;69517;52.030;7.106;2024-03-06T10:02:18;101359.78;;;21.12;68.73
80198;BME280;69517;52.030;7.106;2024-03-06T10:04:46;101369.38;;;21.13;68.67
80198;BME280;69517;52.030;7.106;2024-03-06T10:07:13;101365.97;;;21.11;68.77
80198;BME280;69517;52.030;7.106;2024-03-06T10:09:39;101372.94;;;21.12;68.80
80198;BME280;69517;52.030;7.106;2024-03-06T10:12:06;101370.91;;;21.17;68.70
80198;BME280;69517;52.030;7.106;2024-03-06T10:14:32;101372.09;;;21.27;68.32
80198;BME280;69517;52.030;7.106;2024-03-06T10:16:59;101368.53;;;21.28;68.42
80198;BME280;69517;52.030;7.106;2024-03-06T10:19:27;101368.41;;;21.30;68.38
80198;BME280;69517;52.030;7.106;2024-03-06T10:21:55;101378.09;;;21.29;68.46
80198;BME280;69517;52.030;7.106;2024-03-06T10:24:22;101377.16;;;21.30;68.45
80198;BME280;69517;52.030;7.106;2024-03-06T10:26:49;101378.84;;;21.31;68.58
80198;BME280;69517;52.030;7.106;2024-03-06T10:29:16;101372.09;;;21.27;69.02
80198;BME280;69517;52.030;7.106;2024-03-06T10:31:50;101375.81;;;21.23;69.85
80198;BME280;69517;52.030;7.106;2024-03-06T10:34:17;101385.75;;;21.18;70.49
80198;BME280;69517;52.030;7.106;2024-03-06T10:36:45;101381.59;;;21.14;70.83
80198;BME280;69517;52.030;7.106;2024-03-06T10:39:13;101381.53;;;21.16;70.87
80198;BME280;69517;52.030;7.106;2024-03-06T10:41:40;101387.53;;;21.18;70.74
80198;BME280;69517;52.030;7.106;2024-03-06T10:44:08;101385.16;;;21.13;71.03
80198;BME280;69517;52.030;7.106;2024-03-06T10:46:38;101390.41;;;21.13;70.96
80198;BME280;69517;52.030;7.106;2024-03-06T10:49:05;101391.25;;;21.14;70.90
80198;BME280;69517;52.030;7.106;2024-03-06T10:51:32;101390.41;;;21.13;71.12
80198;BME280;69517;52.030;7.106;2024-03-06T10:53:59;101390.41;;;21.13;71.17
80198;BME280;69517;52.030;7.106;2024-03-06T10:56:27;101388.72;;;21.12;71.23
80198;BME280;69517;52.030;7.106;2024-03-06T10:58:54;101388.72;;;21.12;71.23
80198;BME280;69517;52.030;7.106;2024-03-06T11:01:23;101389.56;;;21.13;71.26
80198;BME280;69517;52.030;7.106;2024-03-06T11:03:50;101390.50;;;21.12;71.34
80198;BME280;69517;52.030;7.106;2024-03-06T11:06:16;101389.56;;;21.13;71.27
80198;BME280;69517;52.030;7.106;2024-03-06T11:08:43;101391.25;;;21.14;71.27
80198;BME280;69517;52.030;7.106;2024-03-06T11:11:19;101395.59;;;21.15;71.05
80198;BME280;69517;52.030;7.106;2024-03-06T11:13:47;101404.25;;;21.17;71.14
80198;BME280;69517;52.030;7.106;2024-03-06T11:16:14;101398.16;;;21.16;71.11
80198;BME280;69517;52.030;7.106;2024-03-06T11:18:41;101403.31;;;21.18;71.01
80198;BME280;69517;52.030;7.106;2024-03-06T11:26:29;101413.69;;;21.21;70.92
80198;BME280;69517;52.030;7.106;2024-03-06T11:28:58;101411.91;;;21.21;70.98
80198;BME280;69517;52.030;7.106;2024-03-06T11:31:24;101408.41;;;21.21;70.88
80198;BME280;69517;52.030;7.106;2024-03-06T11:33:53;101411.13;;;21.19;71.06
80198;BME280;69517;52.030;7.106;2024-03-06T11:36:21;101407.66;;;21.19;70.87
80198;BME280;69517;52.030;7.106;2024-03-06T11:38:51;101414.69;;;21.18;70.87
80198;BME280;69517;52.030;7.106;2024-03-06T11:41:18;101409.44;;;21.18;70.99
80198;BME280;69517;52.030;7.106;2024-03-06T11:43:45;101417.22;;;21.20;70.81
80198;BME280;69517;52.030;7.106;2024-03-06T11:46:14;101406.06;;;21.16;70.75
80198;BME280;69517;52.030;7.106;2024-03-06T11:48:42;101411.22;;;21.18;70.84
80198;BME280;69517;52.030;7.106;2024-03-06T11:51:09;101413.00;;;21.17;70.87
80198;BME280;69517;52.030;7.106;2024-03-06T11:53:35;101411.38;;;21.15;70.86
80198;BME280;69517;52.030;7.106;2024-03-06T11:56:05;101407.88;;;21.14;70.89
80198;BME280;69517;52.030;7.106;2024-03-06T11:58:32;101413.16;;;21.14;70.76
80198;BME280;69517;52.030;7.106;2024-03-06T12:00:58;101413.16;;;21.14;70.79
80198;BME280;69517;52.030;7.106;2024-03-06T12:03:27;101416.69;;;21.13;70.85
80198;BME280;69517;52.030;7.106;2024-03-06T12:05:54;101418.56;;;21.11;70.79
80198;BME280;69517;52.030;7.106;2024-03-06T12:08:20;101414.34;;;21.09;70.64
80198;BME280;69517;52.030;7.106;2024-03-06T12:10:46;101419.59;;;21.09;70.55
80198;BME280;69517;52.030;7.106;2024-03-06T12:13:13;101420.53;;;21.08;70.40
80198;BME280;69517;52.030;7.106;2024-03-06T12:15:42;101416.22;;;21.06;70.34
80198;BME280;69517;52.030;7.106;2024-03-06T12:18:08;101417.06;;;21.07;70.07
80198;BME280;69517;52.030;7.106;2024-03-06T12:20:36;101422.31;;;21.07;69.89
80198;BME280;69517;52.030;7.106;2024-03-06T12:23:06;101427.56;;;21.07;69.95
80198;BME280;69517;52.030;7.106;2024-03-06T12:25:32;101421.38;;;21.08;69.76
80198;BME280;69517;52.030;7.106;2024-03-06T12:28:06;101420.47;;;21.09;69.71
80198;BME280;69517;52.030;7.106;2024-03-06T12:30:38;101429.09;;;21.11;69.72
80198;BME280;69517;52.030;7.106;2024-03-06T12:33:06;101432.47;;;21.13;69.61
80198;BME280;69517;52.030;7.106;2024-03-06T12:35:33;101421.97;;;21.13;69.52
80198;BME280;69517;52.030;7.106;2024-03-06T12:38:00;101422.91;;;21.12;69.68
80198;BME280;69517;52.030;7.106;2024-03-06T12:40:37;101432.47;;;21.13;69.64
80198;BME280;69517;52.030;7.106;2024-03-06T12:43:04;101428.91;;;21.14;69.61
80198;BME280;69517;52.030;7.106;2024-03-06T12:45:31;101434.03;;;21.17;69.63
80198;BME280;69517;52.030;7.106;2024-03-06T12:47:57;101432.34;;;21.16;69.61
80198;BME280;69517;52.030;7.106;2024-03-06T12:50:24;101433.09;;;21.18;69.59
80198;BME280;69517;52.030;7.106;2024-03-06T12:52:51;101433.94;;;21.19;69.53
80198;BME280;69517;52.030;7.106;2024-03-06T12:55:18;101435.66;;;21.20;69.51